Terminal Aerodrome Forecast
Issued by NWS Detroit/Pontiac, MI

Home | Current Version | Previous Version | Text Only | Print | Product List | Glossary On
Versions: 1 2 3 4 5 6 7 8 9 10 11 12 13 14 15 16 17 18 19 20 21 22 23 24 25 26 27
000
FTUS43 KDTX 011735
TAFDTW
TAF
KDTW 011735Z 0118/0224 04013G20KT 3/4SM -SN VV007
     FM012000 04018G25KT 1/4SM +SN BLSN VV003
     FM020300 02018G25KT 3/4SM -SN BLSN VV007
     FM020700 36018KT 2SM -SN OVC012
     FM021100 34015KT P6SM OVC020
     FM021600 30010KT P6SM BKN035=

USA.gov is the U.S. government's official web portal to all federal, state and local government web resources and services.